sensor_id;sensor_type;location;lat;lon;timestamp;temperature;humidity
67275;DHT22;55463;52.324;5.122;2023-04-15T00:00:36;8.60;75.18
67275;DHT22;55463;52.324;5.122;2023-04-15T00:03:01;8.57;75.82
67275;DHT22;55463;52.324;5.122;2023-04-15T00:05:30;8.60;75.64
67275;DHT22;55463;52.324;5.122;2023-04-15T00:07:56;8.63;76.08
67275;DHT22;55463;52.324;5.122;2023-04-15T00:10:24;8.65;76.73
67275;DHT22;55463;52.324;5.122;2023-04-15T00:12:50;8.62;76.58
67275;DHT22;55463;52.324;5.122;2023-04-15T00:15:16;8.63;77.05
67275;DHT22;55463;52.324;5.122;2023-04-15T00:17:41;8.62;77.15
67275;DHT22;55463;52.324;5.122;2023-04-15T00:20:07;8.63;76.94
67275;DHT22;55463;52.324;5.122;2023-04-15T00:22:32;8.65;77.07
67275;DHT22;55463;52.324;5.122;2023-04-15T00:24:58;8.60;76.92
67275;DHT22;55463;52.324;5.122;2023-04-15T00:27:23;8.65;77.04
67275;DHT22;55463;52.324;5.122;2023-04-15T00:29:49;8.62;77.61
67275;DHT22;55463;52.324;5.122;2023-04-15T00:32:14;8.60;77.70
67275;DHT22;55463;52.324;5.122;2023-04-15T00:34:40;8.59;77.61
67275;DHT22;55463;52.324;5.122;2023-04-15T00:37:05;8.60;77.89
67275;DHT22;55463;52.324;5.122;2023-04-15T00:39:31;8.60;77.52
67275;DHT22;55463;52.324;5.122;2023-04-15T00:41:56;8.60;77.58
67275;DHT22;55463;52.324;5.122;2023-04-15T00:44:22;8.57;77.79
67275;DHT22;55463;52.324;5.122;2023-04-15T00:46:50;8.59;77.22
67275;DHT22;55463;52.324;5.122;2023-04-15T00:49:15;8.55;77.57
67275;DHT22;55463;52.324;5.122;2023-04-15T00:51:42;8.49;77.69
67275;DHT22;55463;52.324;5.122;2023-04-15T00:54:09;8.50;77.69
67275;DHT22;55463;52.324;5.122;2023-04-15T00:56:35;8.50;77.75
67275;DHT22;55463;52.324;5.122;2023-04-15T00:59:02;8.48;78.33
67275;DHT22;55463;52.324;5.122;2023-04-15T01:01:28;8.42;78.60
67275;DHT22;55463;52.324;5.122;2023-04-15T01:03:55;8.37;78.70
67275;DHT22;55463;52.324;5.122;2023-04-15T01:06:22;8.34;78.01
67275;DHT22;55463;52.324;5.122;2023-04-15T01:08:47;8.28;77.71
67275;DHT22;55463;52.324;5.122;2023-04-15T01:11:13;8.25;77.54
67275;DHT22;55463;52.324;5.122;2023-04-15T01:13:39;8.20;77.73
67275;DHT22;55463;52.324;5.122;2023-04-15T01:16:06;8.17;77.94
67275;DHT22;55463;52.324;5.122;2023-04-15T01:18:33;8.17;78.16
67275;DHT22;55463;52.324;5.122;2023-04-15T01:21:00;8.18;77.66
67275;DHT22;55463;52.324;5.122;2023-04-15T01:23:26;8.14;77.63
67275;DHT22;55463;52.324;5.122;2023-04-15T01:25:52;8.11;77.80
67275;DHT22;55463;52.324;5.122;2023-04-15T01:28:18;8.08;77.74
67275;DHT22;55463;52.324;5.122;2023-04-15T01:30:44;8.03;78.01
67275;DHT22;55463;52.324;5.122;2023-04-15T01:33:09;7.97;78.29
67275;DHT22;55463;52.324;5.122;2023-04-15T01:35:35;7.95;78.21
67275;DHT22;55463;52.324;5.122;2023-04-15T01:38:07;7.90;78.69
67275;DHT22;55463;52.324;5.122;2023-04-15T01:40:35;7.87;78.67
67275;DHT22;55463;52.324;5.122;2023-04-15T01:43:01;7.83;79.25
67275;DHT22;55463;52.324;5.122;2023-04-15T01:45:27;7.80;79.13
67275;DHT22;55463;52.324;5.122;2023-04-15T01:47:52;7.79;79.14
67275;DHT22;55463;52.324;5.122;2023-04-15T01:50:18;7.76;79.72
67275;DHT22;55463;52.324;5.122;2023-04-15T01:52:45;7.72;79.71
67275;DHT22;55463;52.324;5.122;2023-04-15T01:55:11;7.67;80.08
67275;DHT22;55463;52.324;5.122;2023-04-15T01:57:36;7.65;80.00
67275;DHT22;55463;52.324;5.122;2023-04-15T02:00:02;7.63;80.11
67275;DHT22;55463;52.324;5.122;2023-04-15T02:02:27;7.59;80.25
67275;DHT22;55463;52.324;5.122;2023-04-15T02:04:53;7.58;80.28
67275;DHT22;55463;52.324;5.122;2023-04-15T02:07:18;7.58;80.73
67275;DHT22;55463;52.324;5.122;2023-04-15T02:09:44;7.55;80.73
67275;DHT22;55463;52.324;5.122;2023-04-15T02:12:10;7.55;80.78
67275;DHT22;55463;52.324;5.122;2023-04-15T02:14:35;7.51;81.48
67275;DHT22;55463;52.324;5.122;2023-04-15T02:17:01;7.48;81.70
67275;DHT22;55463;52.324;5.122;2023-04-15T02:19:32;7.48;81.97
67275;DHT22;55463;52.324;5.122;2023-04-15T02:21:57;7.45;81.45
67275;DHT22;55463;52.324;5.122;2023-04-15T02:24:24;7.41;82.18
67275;DHT22;55463;52.324;5.122;2023-04-15T02:26:49;7.42;82.29
67275;DHT22;55463;52.324;5.122;2023-04-15T02:29:14;7.36;82.36
67275;DHT22;55463;52.324;5.122;2023-04-15T02:31:40;7.34;82.24
67275;DHT22;55463;52.324;5.122;2023-04-15T02:34:06;7.30;82.70
67275;DHT22;55463;52.324;5.122;2023-04-15T02:36:32;7.27;83.57
67275;DHT22;55463;52.324;5.122;2023-04-15T02:38:58;7.27;82.87
67275;DHT22;55463;52.324;5.122;2023-04-15T02:41:25;7.22;82.93
67275;DHT22;55463;52.324;5.122;2023-04-15T02:43:52;7.18;83.46
67275;DHT22;55463;52.324;5.122;2023-04-15T02:46:18;7.18;83.15
67275;DHT22;55463;52.324;5.122;2023-04-15T02:48:43;7.18;83.12
67275;DHT22;55463;52.324;5.122;2023-04-15T02:51:16;7.13;83.50
67275;DHT22;55463;52.324;5.122;2023-04-15T02:53:42;7.13;83.34
67275;DHT22;55463;52.324;5.122;2023-04-15T02:56:08;7.13;83.93
67275;DHT22;55463;52.324;5.122;2023-04-15T02:58:34;7.10;83.75
67275;DHT22;55463;52.324;5.122;2023-04-15T03:01:00;7.10;83.46
67275;DHT22;55463;52.324;5.122;2023-04-15T03:03:25;7.05;83.61
67275;DHT22;55463;52.324;5.122;2023-04-15T03:05:52;7.10;84.29
67275;DHT22;55463;52.324;5.122;2023-04-15T03:08:17;7.04;84.61
67275;DHT22;55463;52.324;5.122;2023-04-15T03:10:43;7.03;84.63
67275;DHT22;55463;52.324;5.122;2023-04-15T03:13:08;7.01;84.18
67275;DHT22;55463;52.324;5.122;2023-04-15T03:15:33;6.96;84.60
67275;DHT22;55463;52.324;5.122;2023-04-15T03:17:58;6.97;84.42
67275;DHT22;55463;52.324;5.122;2023-04-15T03:20:24;6.97;84.23
67275;DHT22;55463;52.324;5.122;2023-04-15T03:22:49;6.92;84.38
67275;DHT22;55463;52.324;5.122;2023-04-15T03:25:15;6.94;85.06
67275;DHT22;55463;52.324;5.122;2023-04-15T03:27:40;6.87;85.71
67275;DHT22;55463;52.324;5.122;2023-04-15T03:30:06;6.90;85.09
67275;DHT22;55463;52.324;5.122;2023-04-15T03:32:33;6.89;85.31
67275;DHT22;55463;52.324;5.122;2023-04-15T03:34:58;6.85;85.50
67275;DHT22;55463;52.324;5.122;2023-04-15T03:37:23;6.83;85.65
67275;DHT22;55463;52.324;5.122;2023-04-15T03:39:49;6.82;86.27
67275;DHT22;55463;52.324;5.122;2023-04-15T03:42:15;6.77;86.05
67275;DHT22;55463;52.324;5.122;2023-04-15T03:44:40;6.73;85.92
67275;DHT22;55463;52.324;5.122;2023-04-15T03:47:06;6.69;86.65
67275;DHT22;55463;52.324;5.122;2023-04-15T03:49:31;6.69;87.11
67275;DHT22;55463;52.324;5.122;2023-04-15T03:51:57;6.65;86.64
67275;DHT22;55463;52.324;5.122;2023-04-15T03:54:23;6.62;87.01
67275;DHT22;55463;52.324;5.122;2023-04-15T03:56:49;6.62;86.68
67275;DHT22;55463;52.324;5.122;2023-04-15T03:59:14;6.53;87.19
67275;DHT22;55463;52.324;5.122;2023-04-15T04:01:39;6.53;88.03
67275;DHT22;55463;52.324;5.122;2023-04-15T04:04:05;6.52;86.73
67275;DHT22;55463;52.324;5.122;2023-04-15T04:06:30;6.48;87.64
67275;DHT22;55463;52.324;5.122;2023-04-15T04:08:56;6.46;86.98
67275;DHT22;55463;52.324;5.122;2023-04-15T04:11:22;6.44;87.51
67275;DHT22;55463;52.324;5.122;2023-04-15T04:13:47;6.41;87.68
67275;DHT22;55463;52.324;5.122;2023-04-15T04:16:12;6.38;87.51
67275;DHT22;55463;52.324;5.122;2023-04-15T04:18:38;6.32;87.91
67275;DHT22;55463;52.324;5.122;2023-04-15T04:21:03;6.31;87.18
67275;DHT22;55463;52.324;5.122;2023-04-15T04:23:28;6.25;89.16
67275;DHT22;55463;52.324;5.122;2023-04-15T04:25:54;6.22;88.89
67275;DHT22;55463;52.324;5.122;2023-04-15T04:28:19;6.27;89.94
67275;DHT22;55463;52.324;5.122;2023-04-15T04:30:44;6.21;89.33
67275;DHT22;55463;52.324;5.122;2023-04-15T04:33:10;6.20;88.44
67275;DHT22;55463;52.324;5.122;2023-04-15T04:35:35;6.20;88.34
67275;DHT22;55463;52.324;5.122;2023-04-15T04:38:02;6.13;89.12
67275;DHT22;55463;52.324;5.122;2023-04-15T04:40:28;6.14;90.05
67275;DHT22;55463;52.324;5.122;2023-04-15T04:42:53;6.11;89.94
67275;DHT22;55463;52.324;5.122;2023-04-15T04:45:19;6.09;90.27
67275;DHT22;55463;52.324;5.122;2023-04-15T04:47:44;6.10;90.01
67275;DHT22;55463;52.324;5.122;2023-04-15T04:50:11;6.07;89.84
67275;DHT22;55463;52.324;5.122;2023-04-15T04:52:37;6.07;90.18
67275;DHT22;55463;52.324;5.122;2023-04-15T04:55:03;6.03;90.00
67275;DHT22;55463;52.324;5.122;2023-04-15T04:57:28;6.03;90.72
67275;DHT22;55463;52.324;5.122;2023-04-15T04:59:53;6.06;90.56
67275;DHT22;55463;52.324;5.122;2023-04-15T05:02:19;6.07;90.11
67275;DHT22;55463;52.324;5.122;2023-04-15T05:04:44;6.04;90.43
67275;DHT22;55463;52.324;5.122;2023-04-15T05:07:10;6.03;90.07
67275;DHT22;55463;52.324;5.122;2023-04-15T05:09:35;6.02;90.80
67275;DHT22;55463;52.324;5.122;2023-04-15T05:12:02;6.00;90.75
67275;DHT22;55463;52.324;5.122;2023-04-15T05:14:28;6.06;90.21
67275;DHT22;55463;52.324;5.122;2023-04-15T05:16:53;6.03;90.92
67275;DHT22;55463;52.324;5.122;2023-04-15T05:19:18;6.02;90.52
67275;DHT22;55463;52.324;5.122;2023-04-15T05:21:44;6.03;90.80
67275;DHT22;55463;52.324;5.122;2023-04-15T05:24:09;6.06;91.42
67275;DHT22;55463;52.324;5.122;2023-04-15T05:26:35;6.04;91.09
67275;DHT22;55463;52.324;5.122;2023-04-15T05:29:00;6.06;90.80
67275;DHT22;55463;52.324;5.122;2023-04-15T05:31:25;6.06;90.46
67275;DHT22;55463;52.324;5.122;2023-04-15T05:33:51;6.06;90.89
67275;DHT22;55463;52.324;5.122;2023-04-15T05:36:16;6.03;91.22
67275;DHT22;55463;52.324;5.122;2023-04-15T05:38:41;6.07;91.31
67275;DHT22;55463;52.324;5.122;2023-04-15T05:41:07;6.09;91.56
67275;DHT22;55463;52.324;5.122;2023-04-15T05:43:33;6.11;91.00
67275;DHT22;55463;52.324;5.122;2023-04-15T05:45:58;6.14;91.09
67275;DHT22;55463;52.324;5.122;2023-04-15T05:48:23;6.16;90.98
67275;DHT22;55463;52.324;5.122;2023-04-15T05:50:49;6.16;90.86
67275;DHT22;55463;52.324;5.122;2023-04-15T05:53:14;6.18;90.71
67275;DHT22;55463;52.324;5.122;2023-04-15T05:55:40;6.24;91.64
67275;DHT22;55463;52.324;5.122;2023-04-15T05:58:05;6.24;91.08
67275;DHT22;55463;52.324;5.122;2023-04-15T06:00:31;6.28;91.27
67275;DHT22;55463;52.324;5.122;2023-04-15T06:02:57;6.31;91.03
67275;DHT22;55463;52.324;5.122;2023-04-15T06:05:23;6.31;91.08
67275;DHT22;55463;52.324;5.122;2023-04-15T06:07:49;6.38;91.29
67275;DHT22;55463;52.324;5.122;2023-04-15T06:10:14;6.41;91.96
67275;DHT22;55463;52.324;5.122;2023-04-15T06:12:40;6.45;91.37
67275;DHT22;55463;52.324;5.122;2023-04-15T06:15:05;6.49;91.45
67275;DHT22;55463;52.324;5.122;2023-04-15T06:17:31;6.59;91.51
67275;DHT22;55463;52.324;5.122;2023-04-15T06:19:56;6.58;91.17
67275;DHT22;55463;52.324;5.122;2023-04-15T06:22:22;6.61;91.34
67275;DHT22;55463;52.324;5.122;2023-04-15T06:24:48;6.68;91.93
67275;DHT22;55463;52.324;5.122;2023-04-15T06:27:17;6.73;92.03
67275;DHT22;55463;52.324;5.122;2023-04-15T06:29:43;6.77;91.71
67275;DHT22;55463;52.324;5.122;2023-04-15T06:32:09;6.82;91.38
67275;DHT22;55463;52.324;5.122;2023-04-15T06:34:35;6.85;91.48
67275;DHT22;55463;52.324;5.122;2023-04-15T06:37:00;6.87;91.72
67275;DHT22;55463;52.324;5.122;2023-04-15T06:39:28;7.00;91.74
67275;DHT22;55463;52.324;5.122;2023-04-15T06:41:53;7.04;91.46
67275;DHT22;55463;52.324;5.122;2023-04-15T06:44:19;7.08;91.23
67275;DHT22;55463;52.324;5.122;2023-04-15T06:46:44;7.22;91.53
67275;DHT22;55463;52.324;5.122;2023-04-15T06:49:10;7.28;91.34
67275;DHT22;55463;52.324;5.122;2023-04-15T06:51:35;7.36;91.14
67275;DHT22;55463;52.324;5.122;2023-04-15T06:54:02;7.47;91.28
67275;DHT22;55463;52.324;5.122;2023-04-15T06:56:30;7.66;91.17
67275;DHT22;55463;52.324;5.122;2023-04-15T06:58:55;8.04;90.42
67275;DHT22;55463;52.324;5.122;2023-04-15T07:01:21;8.57;90.85
67275;DHT22;55463;52.324;5.122;2023-04-15T07:03:47;9.18;90.31
67275;DHT22;55463;52.324;5.122;2023-04-15T07:06:12;9.77;88.82
67275;DHT22;55463;52.324;5.122;2023-04-15T07:08:38;10.25;85.58
67275;DHT22;55463;52.324;5.122;2023-04-15T07:11:03;10.85;86.58
67275;DHT22;55463;52.324;5.122;2023-04-15T07:13:31;11.10;80.95
67275;DHT22;55463;52.324;5.122;2023-04-15T07:15:56;11.47;80.47
67275;DHT22;55463;52.324;5.122;2023-04-15T07:18:22;11.89;80.72
67275;DHT22;55463;52.324;5.122;2023-04-15T07:20:47;12.24;76.86
67275;DHT22;55463;52.324;5.122;2023-04-15T07:23:12;12.67;76.11
67275;DHT22;55463;52.324;5.122;2023-04-15T07:25:38;13.21;75.92
67275;DHT22;55463;52.324;5.122;2023-04-15T07:28:03;13.41;74.69
67275;DHT22;55463;52.324;5.122;2023-04-15T07:30:29;13.18;72.35
67275;DHT22;55463;52.324;5.122;2023-04-15T07:32:54;13.24;72.41
67275;DHT22;55463;52.324;5.122;2023-04-15T07:35:20;13.56;72.46
67275;DHT22;55463;52.324;5.122;2023-04-15T07:37:46;13.86;70.60
67275;DHT22;55463;52.324;5.122;2023-04-15T07:40:11;13.98;71.32
67275;DHT22;55463;52.324;5.122;2023-04-15T07:42:38;14.45;69.19
67275;DHT22;55463;52.324;5.122;2023-04-15T07:45:04;14.81;69.80
67275;DHT22;55463;52.324;5.122;2023-04-15T07:47:30;14.76;67.25
67275;DHT22;55463;52.324;5.122;2023-04-15T07:49:56;15.12;67.94
67275;DHT22;55463;52.324;5.122;2023-04-15T07:52:21;15.50;66.04
67275;DHT22;55463;52.324;5.122;2023-04-15T07:54:47;15.45;65.74
67275;DHT22;55463;52.324;5.122;2023-04-15T07:57:12;16.18;66.31
67275;DHT22;55463;52.324;5.122;2023-04-15T07:59:37;16.28;64.92
67275;DHT22;55463;52.324;5.122;2023-04-15T08:02:03;16.73;64.45
67275;DHT22;55463;52.324;5.122;2023-04-15T08:04:28;16.79;62.81
67275;DHT22;55463;52.324;5.122;2023-04-15T08:06:53;17.55;63.04
67275;DHT22;55463;52.324;5.122;2023-04-15T08:09:19;17.62;60.53
67275;DHT22;55463;52.324;5.122;2023-04-15T08:11:48;18.05;60.04
67275;DHT22;55463;52.324;5.122;2023-04-15T08:14:13;18.29;59.83
67275;DHT22;55463;52.324;5.122;2023-04-15T08:16:39;17.89;57.87
67275;DHT22;55463;52.324;5.122;2023-04-15T08:19:04;17.86;57.44
67275;DHT22;55463;52.324;5.122;2023-04-15T08:21:30;18.44;58.48
67275;DHT22;55463;52.324;5.122;2023-04-15T08:23:55;18.36;57.89
67275;DHT22;55463;52.324;5.122;2023-04-15T08:26:21;18.48;56.15
67275;DHT22;55463;52.324;5.122;2023-04-15T08:28:47;18.70;56.52
67275;DHT22;55463;52.324;5.122;2023-04-15T08:31:14;19.07;56.00
67275;DHT22;55463;52.324;5.122;2023-04-15T08:33:40;19.79;57.23
67275;DHT22;55463;52.324;5.122;2023-04-15T08:36:06;19.46;54.64
67275;DHT22;55463;52.324;5.122;2023-04-15T08:38:32;18.59;54.53
67275;DHT22;55463;52.324;5.122;2023-04-15T08:40:59;18.73;56.33
67275;DHT22;55463;52.324;5.122;2023-04-15T08:43:27;18.59;55.19
67275;DHT22;55463;52.324;5.122;2023-04-15T08:45:54;18.22;55.99
67275;DHT22;55463;52.324;5.122;2023-04-15T08:48:20;18.55;56.69
67275;DHT22;55463;52.324;5.122;2023-04-15T08:50:48;18.84;55.40
67275;DHT22;55463;52.324;5.122;2023-04-15T08:53:13;18.49;54.74
67275;DHT22;55463;52.324;5.122;2023-04-15T08:55:44;18.48;55.74
67275;DHT22;55463;52.324;5.122;2023-04-15T08:58:11;17.98;55.97
67275;DHT22;55463;52.324;5.122;2023-04-15T09:00:36;18.21;55.25
67275;DHT22;55463;52.324;5.122;2023-04-15T09:03:06;18.89;55.93
67275;DHT22;55463;52.324;5.122;2023-04-15T09:05:33;19.04;55.25
67275;DHT22;55463;52.324;5.122;2023-04-15T09:08:00;19.06;53.86
67275;DHT22;55463;52.324;5.122;2023-04-15T09:10:26;19.08;55.99
67275;DHT22;55463;52.324;5.122;2023-04-15T09:12:51;19.24;54.68
67275;DHT22;55463;52.324;5.122;2023-04-15T09:15:17;18.64;54.80
67275;DHT22;55463;52.324;5.122;2023-04-15T09:17:43;17.91;56.52
67275;DHT22;55463;52.324;5.122;2023-04-15T09:20:11;18.84;57.74
67275;DHT22;55463;52.324;5.122;2023-04-15T09:22:38;17.84;57.38
67275;DHT22;55463;52.324;5.122;2023-04-15T09:25:24;17.65;57.52
67275;DHT22;55463;52.324;5.122;2023-04-15T09:27:52;18.05;58.45
67275;DHT22;55463;52.324;5.122;2023-04-15T09:30:18;17.80;59.05
67275;DHT22;55463;52.324;5.122;2023-04-15T09:33:03;17.79;59.02
67275;DHT22;55463;52.324;5.122;2023-04-15T09:35:33;17.96;60.22
67275;DHT22;55463;52.324;5.122;2023-04-15T09:38:05;17.38;59.40
67275;DHT22;55463;52.324;5.122;2023-04-15T09:40:36;17.14;60.23
67275;DHT22;55463;52.324;5.122;2023-04-15T09:43:03;16.29;61.78
67275;DHT22;55463;52.324;5.122;2023-04-15T09:45:29;17.00;62.21
67275;DHT22;55463;52.324;5.122;2023-04-15T09:48:00;17.46;61.34
67275;DHT22;55463;52.324;5.122;2023-04-15T09:50:39;16.95;61.48
67275;DHT22;55463;52.324;5.122;2023-04-15T09:53:08;17.01;62.15
67275;DHT22;55463;52.324;5.122;2023-04-15T09:55:33;17.76;61.70
67275;DHT22;55463;52.324;5.122;2023-04-15T09:57:59;17.29;61.30
67275;DHT22;55463;52.324;5.122;2023-04-15T10:00:24;17.61;60.43
67275;DHT22;55463;52.324;5.122;2023-04-15T10:02:50;17.17;61.37
67275;DHT22;55463;52.324;5.122;2023-04-15T10:05:16;17.80;62.51
67275;DHT22;55463;52.324;5.122;2023-04-15T10:07:42;17.34;61.97
67275;DHT22;55463;52.324;5.122;2023-04-15T10:10:08;16.95;62.89
67275;DHT22;55463;52.324;5.122;2023-04-15T10:12:36;17.15;63.22
67275;DHT22;55463;52.324;5.122;2023-04-15T10:15:05;17.69;62.93
67275;DHT22;55463;52.324;5.122;2023-04-15T10:17:32;17.67;61.75
67275;DHT22;55463;52.324;5.122;2023-04-15T10:20:03;18.22;61.56
67275;DHT22;55463;52.324;5.122;2023-04-15T10:22:29;17.62;61.51
67275;DHT22;55463;52.324;5.122;2023-04-15T10:24:55;17.70;62.10
67275;DHT22;55463;52.324;5.122;2023-04-15T10:27:22;16.69;63.69
67275;DHT22;55463;52.324;5.122;2023-04-15T10:29:49;16.26;64.91
67275;DHT22;55463;52.324;5.122;2023-04-15T10:32:16;16.17;64.95
67275;DHT22;55463;52.324;5.122;2023-04-15T10:34:43;16.55;65.00
67275;DHT22;55463;52.324;5.122;2023-04-15T10:37:09;16.07;64.13
67275;DHT22;55463;52.324;5.122;2023-04-15T10:39:38;16.20;66.73
67275;DHT22;55463;52.324;5.122;2023-04-15T10:42:12;15.77;65.89
67275;DHT22;55463;52.324;5.122;2023-04-15T10:44:38;15.76;66.40
67275;DHT22;55463;52.324;5.122;2023-04-15T10:47:11;16.00;66.62
67275;DHT22;55463;52.324;5.122;2023-04-15T10:49:42;16.04;66.83
67275;DHT22;55463;52.324;5.122;2023-04-15T10:52:07;16.69;67.50
67275;DHT22;55463;52.324;5.122;2023-04-15T10:54:32;17.03;65.18
67275;DHT22;55463;52.324;5.122;2023-04-15T10:59:31;16.14;64.88
67275;DHT22;55463;52.324;5.122;2023-04-15T11:02:01;16.51;66.60
67275;DHT22;55463;52.324;5.122;2023-04-15T11:07:48;16.55;64.64
67275;DHT22;55463;52.324;5.122;2023-04-15T11:12:43;15.73;67.19
67275;DHT22;55463;52.324;5.122;2023-04-15T11:17:52;15.35;67.42
67275;DHT22;55463;52.324;5.122;2023-04-15T11:20:17;15.79;65.36
67275;DHT22;55463;52.324;5.122;2023-04-15T11:22:50;16.36;65.68
67275;DHT22;55463;52.324;5.122;2023-04-15T11:25:32;16.46;65.20
67275;DHT22;55463;52.324;5.122;2023-04-15T11:28:00;16.84;62.59
67275;DHT22;55463;52.324;5.122;2023-04-15T11:30:28;17.04;64.07
67275;DHT22;55463;52.324;5.122;2023-04-15T11:32:57;16.93;63.14
67275;DHT22;55463;52.324;5.122;2023-04-15T11:35:22;17.61;62.40
67275;DHT22;55463;52.324;5.122;2023-04-15T11:37:48;17.17;61.15
67275;DHT22;55463;52.324;5.122;2023-04-15T11:40:15;16.83;61.60
67275;DHT22;55463;52.324;5.122;2023-04-15T11:42:44;16.53;63.07
67275;DHT22;55463;52.324;5.122;2023-04-15T11:45:12;17.08;64.64
67275;DHT22;55463;52.324;5.122;2023-04-15T11:47:39;16.76;62.32
67275;DHT22;55463;52.324;5.122;2023-04-15T11:52:51;16.63;63.99
67275;DHT22;55463;52.324;5.122;2023-04-15T11:55:16;16.55;64.50
67275;DHT22;55463;52.324;5.122;2023-04-15T11:57:42;16.41;64.36
67275;DHT22;55463;52.324;5.122;2023-04-15T12:00:08;16.44;64.66
67275;DHT22;55463;52.324;5.122;2023-04-15T12:02:35;16.52;65.55
67275;DHT22;55463;52.324;5.122;2023-04-15T12:05:05;17.22;64.49
67275;DHT22;55463;52.324;5.122;2023-04-15T12:07:31;17.49;63.16
67275;DHT22;55463;52.324;5.122;2023-04-15T12:09:57;17.86;62.74
67275;DHT22;55463;52.324;5.122;2023-04-15T12:12:26;18.42;61.58
67275;DHT22;55463;52.324;5.122;2023-04-15T12:14:52;17.83;60.51
67275;DHT22;55463;52.324;5.122;2023-04-15T12:17:18;17.74;62.23
67275;DHT22;55463;52.324;5.122;2023-04-15T12:19:43;17.65;63.63
67275;DHT22;55463;52.324;5.122;2023-04-15T12:22:15;17.50;63.06
67275;DHT22;55463;52.324;5.122;2023-04-15T12:24:42;17.98;62.52
67275;DHT22;55463;52.324;5.122;2023-04-15T12:27:16;18.69;61.89
67275;DHT22;55463;52.324;5.122;2023-04-15T12:29:42;19.12;60.88
67275;DHT22;55463;52.324;5.122;2023-04-15T12:32:15;19.11;60.07
67275;DHT22;55463;52.324;5.122;2023-04-15T12:34:43;19.22;58.93
67275;DHT22;55463;52.324;5.122;2023-04-15T12:37:11;19.28;59.53
67275;DHT22;55463;52.324;5.122;2023-04-15T12:39:40;19.72;59.37
67275;DHT22;55463;52.324;5.122;2023-04-15T12:42:07;19.91;58.69
67275;DHT22;55463;52.324;5.122;2023-04-15T12:44:36;19.76;57.89
67275;DHT22;55463;52.324;5.122;2023-04-15T12:47:02;20.00;57.89
67275;DHT22;55463;52.324;5.122;2023-04-15T12:49:28;19.61;57.59
67275;DHT22;55463;52.324;5.122;2023-04-15T12:51:58;19.61;58.97
67275;DHT22;55463;52.324;5.122;2023-04-15T12:54:24;19.73;59.21
67275;DHT22;55463;52.324;5.122;2023-04-15T12:56:50;19.72;57.96
67275;DHT22;55463;52.324;5.122;2023-04-15T12:59:16;19.69;57.34
67275;DHT22;55463;52.324;5.122;2023-04-15T13:01:42;19.11;57.58
67275;DHT22;55463;52.324;5.122;2023-04-15T13:04:08;19.06;58.05
67275;DHT22;55463;52.324;5.122;2023-04-15T13:06:33;18.96;58.67
67275;DHT22;55463;52.324;5.122;2023-04-15T13:08:59;18.86;57.46
67275;DHT22;55463;52.324;5.122;2023-04-15T13:11:26;18.81;57.82
67275;DHT22;55463;52.324;5.122;2023-04-15T13:13:51;17.97;59.15
67275;DHT22;55463;52.324;5.122;2023-04-15T13:16:17;17.80;59.96
67275;DHT22;55463;52.324;5.122;2023-04-15T13:18:43;17.55;61.14
67275;DHT22;55463;52.324;5.122;2023-04-15T13:21:09;17.31;62.88
67275;DHT22;55463;52.324;5.122;2023-04-15T13:23:35;17.04;62.05
67275;DHT22;55463;52.324;5.122;2023-04-15T13:26:01;16.91;63.56
67275;DHT22;55463;52.324;5.122;2023-04-15T13:28:26;16.88;63.71
67275;DHT22;55463;52.324;5.122;2023-04-15T13:30:51;16.99;63.82
67275;DHT22;55463;52.324;5.122;2023-04-15T13:33:18;16.59;64.34
67275;DHT22;55463;52.324;5.122;2023-04-15T13:35:43;16.29;65.45
67275;DHT22;55463;52.324;5.122;2023-04-15T13:38:09;16.18;66.89
67275;DHT22;55463;52.324;5.122;2023-04-15T13:40:34;15.70;66.81
67275;DHT22;55463;52.324;5.122;2023-04-15T13:43:00;15.22;67.97
67275;DHT22;55463;52.324;5.122;2023-04-15T13:45:26;14.91;69.26
67275;DHT22;55463;52.324;5.122;2023-04-15T13:47:51;14.69;69.01
67275;DHT22;55463;52.324;5.122;2023-04-15T13:50:17;14.70;69.15
67275;DHT22;55463;52.324;5.122;2023-04-15T13:52:42;14.73;69.11
67275;DHT22;55463;52.324;5.122;2023-04-15T13:55:08;14.65;68.95
67275;DHT22;55463;52.324;5.122;2023-04-15T13:57:34;14.76;69.56
67275;DHT22;55463;52.324;5.122;2023-04-15T13:59:59;14.48;68.94
67275;DHT22;55463;52.324;5.122;2023-04-15T14:02:25;14.32;69.75
67275;DHT22;55463;52.324;5.122;2023-04-15T14:04:50;14.33;69.82
67275;DHT22;55463;52.324;5.122;2023-04-15T14:07:15;14.36;69.81
67275;DHT22;55463;52.324;5.122;2023-04-15T14:09:42;14.29;70.76
67275;DHT22;55463;52.324;5.122;2023-04-15T14:12:07;14.03;70.88
67275;DHT22;55463;52.324;5.122;2023-04-15T14:14:34;14.00;69.54
67275;DHT22;55463;52.324;5.122;2023-04-15T14:16:59;14.22;69.72
67275;DHT22;55463;52.324;5.122;2023-04-15T14:19:25;14.36;69.57
67275;DHT22;55463;52.324;5.122;2023-04-15T14:21:50;13.70;69.48
67275;DHT22;55463;52.324;5.122;2023-04-15T14:24:16;13.74;71.10
67275;DHT22;55463;52.324;5.122;2023-04-15T14:26:42;13.90;71.14
67275;DHT22;55463;52.324;5.122;2023-04-15T14:29:08;13.76;70.88
67275;DHT22;55463;52.324;5.122;2023-04-15T14:31:34;13.36;71.75
67275;DHT22;55463;52.324;5.122;2023-04-15T14:33:59;13.46;73.06
67275;DHT22;55463;52.324;5.122;2023-04-15T14:36:25;13.31;72.77
67275;DHT22;55463;52.324;5.122;2023-04-15T14:38:51;13.39;72.35
67275;DHT22;55463;52.324;5.122;2023-04-15T14:41:16;13.28;71.11
67275;DHT22;55463;52.324;5.122;2023-04-15T14:43:42;13.24;72.30
67275;DHT22;55463;52.324;5.122;2023-04-15T14:46:07;13.07;71.95
67275;DHT22;55463;52.324;5.122;2023-04-15T14:48:33;13.19;72.27
67275;DHT22;55463;52.324;5.122;2023-04-15T14:50:58;13.05;71.99
67275;DHT22;55463;52.324;5.122;2023-04-15T14:53:23;12.69;72.57
67275;DHT22;55463;52.324;5.122;2023-04-15T14:55:49;12.93;72.97
67275;DHT22;55463;52.324;5.122;2023-04-15T14:58:14;13.15;73.90
67275;DHT22;55463;52.324;5.122;2023-04-15T15:00:40;13.14;73.00
67275;DHT22;55463;52.324;5.122;2023-04-15T15:03:09;13.21;73.58
67275;DHT22;55463;52.324;5.122;2023-04-15T15:05:39;13.34;73.58
67275;DHT22;55463;52.324;5.122;2023-04-15T15:08:06;13.12;72.62
67275;DHT22;55463;52.324;5.122;2023-04-15T15:10:32;13.00;73.83
67275;DHT22;55463;52.324;5.122;2023-04-15T15:12:58;12.73;73.63
67275;DHT22;55463;52.324;5.122;2023-04-15T15:15:23;12.63;73.78
67275;DHT22;55463;52.324;5.122;2023-04-15T15:17:49;12.29;73.68
67275;DHT22;55463;52.324;5.122;2023-04-15T15:20:15;11.95;74.09
67275;DHT22;55463;52.324;5.122;2023-04-15T15:22:41;11.87;74.48
67275;DHT22;55463;52.324;5.122;2023-04-15T15:25:06;11.81;75.19
67275;DHT22;55463;52.324;5.122;2023-04-15T15:27:32;12.01;75.04
67275;DHT22;55463;52.324;5.122;2023-04-15T15:29:57;12.08;75.46
67275;DHT22;55463;52.324;5.122;2023-04-15T15:32:23;12.18;75.23
67275;DHT22;55463;52.324;5.122;2023-04-15T15:34:48;12.05;75.88
67275;DHT22;55463;52.324;5.122;2023-04-15T15:37:13;12.02;76.69
67275;DHT22;55463;52.324;5.122;2023-04-15T15:39:39;12.00;77.43
67275;DHT22;55463;52.324;5.122;2023-04-15T15:42:04;11.94;77.07
67275;DHT22;55463;52.324;5.122;2023-04-15T15:44:31;11.90;77.32